Time;durP1;ratioP1;P1;durP2;ratioP2;P2;SDS_P1;SDS_P2;PMS_P1;PMS_P2;Temp;Humidity;BMP_temperature;BMP_pressure;BME280_temperature;BME280_humidity;BME280_pressure;Samples;Min_cycle;Max_cycle;Signal;HPM_P1;HPM_P2
2023/07/29 00:01:41;;;;;;;1.50;0.90;;;22.10;99.90;;;;;;4999206;28;20698;-76
2023/07/29 00:04:08;;;;;;;1.83;0.80;;;22.10;99.90;;;;;;5001308;28;20642;-76
2023/07/29 00:06:34;;;;;;;1.77;0.97;;;22.10;99.90;;;;;;5001214;28;20594;-76
2023/07/29 00:09:00;;;;;;;3.93;1.00;;;22.10;99.90;;;;;;4999802;28;20676;-76
2023/07/29 00:11:26;;;;;;;2.20;0.80;;;22.10;99.90;;;;;;4998813;28;20609;-76
2023/07/29 00:13:52;;;;;;;1.50;0.80;;;22.00;99.90;;;;;;4997305;28;20621;-76
2023/07/29 00:16:21;;;;;;;2.00;0.87;;;22.00;99.90;;;;;;4995555;28;20519;-76
2023/07/29 00:18:48;;;;;;;2.00;1.10;;;22.00;99.90;;;;;;4994593;28;20594;-76
2023/07/29 00:21:13;;;;;;;1.80;1.00;;;21.90;99.90;;;;;;4995485;28;20792;-76
2023/07/29 00:23:39;;;;;;;1.70;0.83;;;21.90;99.90;;;;;;4994053;28;20614;-76
2023/07/29 00:26:05;;;;;;;1.60;1.00;;;21.90;99.90;;;;;;4994748;28;20186;-76
2023/07/29 00:28:31;;;;;;;2.47;1.00;;;21.80;99.90;;;;;;4994584;28;20195;-76
2023/07/29 00:30:56;;;;;;;2.10;1.07;;;21.80;99.90;;;;;;4994201;28;21272;-76
2023/07/29 00:33:22;;;;;;;3.87;0.93;;;21.70;99.90;;;;;;4993713;28;20178;-76
2023/07/29 00:35:48;;;;;;;1.73;1.00;;;21.70;99.90;;;;;;4993140;28;20254;-76
2023/07/29 00:38:13;;;;;;;2.50;1.13;;;21.60;99.90;;;;;;4976626;28;20268;-76
2023/07/29 00:40:39;;;;;;;1.67;1.00;;;21.50;99.90;;;;;;4994066;28;20574;-76
2023/07/29 00:43:05;;;;;;;1.60;0.90;;;21.50;99.90;;;;;;4994243;28;20179;-76
2023/07/29 00:45:32;;;;;;;2.53;1.10;;;21.40;99.90;;;;;;4994869;28;20218;-76
2023/07/29 00:47:59;;;;;;;1.50;1.00;;;21.40;99.90;;;;;;4994924;28;20183;-76
2023/07/29 00:50:27;;;;;;;1.87;0.90;;;21.40;99.90;;;;;;4994817;28;20673;-76
2023/07/29 00:52:54;;;;;;;2.83;1.10;;;21.30;99.90;;;;;;4994097;28;20693;-76
2023/07/29 00:55:23;;;;;;;1.70;0.90;;;21.30;99.90;;;;;;4994613;28;20609;-75
2023/07/29 00:57:51;;;;;;;2.53;1.20;;;21.30;99.90;;;;;;4993844;28;20617;-76
2023/07/29 01:00:17;;;;;;;1.73;1.10;;;21.30;99.90;;;;;;4992838;28;20931;-76
2023/07/29 01:02:43;;;;;;;1.53;0.90;;;21.30;99.90;;;;;;4992860;28;20601;-76
2023/07/29 01:05:12;;;;;;;2.17;0.90;;;21.30;99.90;;;;;;4993464;28;20680;-76
2023/07/29 01:08:16;;;;;;;3.67;0.80;;;21.30;99.90;;;;;;4993065;28;20590;-76
2023/07/29 01:11:03;;;;;;;2.10;1.10;;;21.30;99.90;;;;;;4914220;28;20597;-76
2023/07/29 01:13:39;;;;;;;3.50;0.97;;;21.30;99.90;;;;;;4979619;28;20651;-76
2023/07/29 01:16:56;;;;;;;1.40;0.80;;;21.30;99.90;;;;;;4996768;28;20616;-76
2023/07/29 01:19:45;;;;;;;2.70;0.90;;;21.30;99.90;;;;;;5005773;28;20597;-76
2023/07/29 01:22:12;;;;;;;2.23;0.80;;;21.30;99.90;;;;;;4993568;28;20578;-76
2023/07/29 01:24:39;;;;;;;1.73;0.90;;;21.30;99.90;;;;;;4993010;28;20650;-76
2023/07/29 01:27:05;;;;;;;1.40;0.90;;;21.30;99.90;;;;;;4960863;28;20589;-77
2023/07/29 01:29:31;;;;;;;1.50;0.90;;;21.30;99.90;;;;;;4976308;28;20626;-76
2023/07/29 01:32:02;;;;;;;2.47;1.03;;;21.30;99.90;;;;;;4993353;28;20585;-76
2023/07/29 01:34:35;;;;;;;1.43;0.80;;;21.30;99.90;;;;;;4992216;28;20713;-76
2023/07/29 01:37:05;;;;;;;1.50;0.90;;;21.30;99.90;;;;;;4992785;28;20647;-76
2023/07/29 01:39:34;;;;;;;2.40;1.03;;;21.30;99.90;;;;;;4992770;28;20644;-76
2023/07/29 01:41:59;;;;;;;2.63;1.23;;;21.40;99.90;;;;;;4992131;28;20935;-76
2023/07/29 01:44:28;;;;;;;1.93;1.00;;;21.40;99.90;;;;;;4992447;28;20685;-76
2023/07/29 01:46:58;;;;;;;2.20;1.03;;;21.30;99.90;;;;;;4993172;28;21149;-76
2023/07/29 01:49:23;;;;;;;1.90;0.93;;;21.20;99.90;;;;;;4992338;28;20641;-76
2023/07/29 01:51:50;;;;;;;2.53;1.27;;;21.20;99.90;;;;;;4992476;28;20634;-76
2023/07/29 01:54:16;;;;;;;2.47;1.27;;;21.10;99.90;;;;;;4994812;28;20677;-76
2023/07/29 01:56:42;;;;;;;1.60;1.00;;;21.10;99.90;;;;;;4993457;28;20598;-76
2023/07/29 01:59:08;;;;;;;1.73;1.00;;;21.10;99.90;;;;;;4993501;28;20190;-76
2023/07/29 02:01:33;;;;;;;1.60;1.07;;;21.10;99.90;;;;;;4992465;28;20175;-76
2023/07/29 02:03:59;;;;;;;3.13;1.43;;;21.10;99.90;;;;;;4992216;28;20195;-76
2023/07/29 02:06:26;;;;;;;2.43;1.10;;;21.10;99.90;;;;;;4991673;28;20205;-76
2023/07/29 02:08:54;;;;;;;1.70;1.20;;;21.10;99.90;;;;;;4959126;28;20203;-76
2023/07/29 02:11:26;;;;;;;1.83;1.00;;;21.10;99.90;;;;;;4974537;28;20586;-76
2023/07/29 02:13:53;;;;;;;1.70;1.03;;;21.10;99.90;;;;;;4991199;28;20610;-76
2023/07/29 02:16:19;;;;;;;2.63;1.00;;;21.10;99.90;;;;;;4992479;28;20964;-76
2023/07/29 02:18:45;;;;;;;1.60;0.93;;;21.10;99.90;;;;;;4992179;28;20594;-76
2023/07/29 02:21:10;;;;;;;1.70;1.00;;;21.10;99.90;;;;;;4993931;28;20665;-76
2023/07/29 02:23:36;;;;;;;1.80;1.00;;;21.10;99.90;;;;;;4993716;28;20202;-76
2023/07/29 02:26:02;;;;;;;2.37;1.50;;;21.10;99.90;;;;;;4996046;28;20194;-76
2023/07/29 02:28:28;;;;;;;2.20;1.03;;;21.10;99.90;;;;;;4993436;28;20275;-75
2023/07/29 02:31:29;;;;;;;2.30;1.00;;;21.10;99.90;;;;;;4978920;28;21142;-76
2023/07/29 02:33:56;;;;;;;1.90;1.00;;;21.10;99.90;;;;;;4955431;28;20203;-76
2023/07/29 02:36:23;;;;;;;1.50;0.87;;;21.10;99.90;;;;;;4984359;28;20617;-76
2023/07/29 02:38:49;;;;;;;2.47;1.23;;;21.10;99.90;;;;;;4994861;28;20586;-76
2023/07/29 02:41:16;;;;;;;1.90;1.07;;;21.00;99.90;;;;;;4995238;28;20235;-76
2023/07/29 02:43:49;;;;;;;2.67;1.30;;;21.10;99.90;;;;;;4995834;28;20934;-76
2023/07/29 02:46:15;;;;;;;1.80;0.80;;;21.10;99.90;;;;;;4996764;28;20574;-75
2023/07/29 02:48:41;;;;;;;2.47;0.80;;;21.00;99.90;;;;;;4991671;28;20680;-75
2023/07/29 02:51:07;;;;;;;1.37;0.70;;;21.00;99.90;;;;;;4991996;28;20537;-75
2023/07/29 02:53:33;;;;;;;2.27;0.90;;;21.00;99.90;;;;;;4995522;28;20761;-76
2023/07/29 02:55:58;;;;;;;1.50;0.60;;;21.00;99.90;;;;;;4979461;28;20182;-75
2023/07/29 02:58:26;;;;;;;2.03;0.70;;;21.00;99.90;;;;;;4996341;28;20191;-75
2023/07/29 03:00:52;;;;;;;2.53;0.60;;;21.00;99.90;;;;;;4998551;28;20674;-76
2023/07/29 03:03:19;;;;;;;2.27;0.77;;;21.00;99.90;;;;;;5000212;28;21145;-75
2023/07/29 03:05:45;;;;;;;1.53;1.00;;;21.00;99.90;;;;;;5000936;28;20581;-76
2023/07/29 03:08:11;;;;;;;2.93;0.70;;;21.00;99.90;;;;;;4983142;28;20592;-76
2023/07/29 03:10:36;;;;;;;2.13;0.80;;;21.00;99.90;;;;;;5000171;28;20217;-76
2023/07/29 03:13:02;;;;;;;2.80;0.60;;;21.00;99.90;;;;;;4998056;28;20267;-76
2023/07/29 03:15:28;;;;;;;1.40;0.70;;;21.00;99.90;;;;;;4995907;28;20206;-75
2023/07/29 03:17:54;;;;;;;1.70;0.80;;;21.00;99.90;;;;;;4996517;28;20594;-75
2023/07/29 03:20:20;;;;;;;1.40;0.70;;;21.00;99.90;;;;;;4995605;28;20175;-75
2023/07/29 03:22:46;;;;;;;1.43;0.70;;;21.00;99.90;;;;;;4995923;28;20659;-76
2023/07/29 03:25:13;;;;;;;1.50;0.80;;;21.00;99.90;;;;;;4979385;28;20618;-75
2023/07/29 03:27:39;;;;;;;1.80;0.70;;;21.00;99.90;;;;;;4995377;28;20586;-76
2023/07/29 03:30:07;;;;;;;2.30;0.87;;;21.00;99.90;;;;;;4995492;28;20691;-76
2023/07/29 03:32:33;;;;;;;1.63;0.63;;;20.90;99.90;;;;;;4995305;28;20586;-76
2023/07/29 03:34:59;;;;;;;2.43;0.73;;;20.90;99.90;;;;;;4996235;28;20701;-76
2023/07/29 03:37:24;;;;;;;1.40;0.60;;;20.90;99.90;;;;;;4995701;28;20577;-76
2023/07/29 03:39:51;;;;;;;1.43;0.60;;;20.90;99.90;;;;;;4995887;28;20241;-76
2023/07/29 03:42:17;;;;;;;1.73;0.90;;;20.90;99.90;;;;;;4995170;28;20532;-76
2023/07/29 03:44:44;;;;;;;1.47;0.77;;;20.90;99.90;;;;;;4995812;28;20990;-76
2023/07/29 03:47:09;;;;;;;1.53;0.70;;;20.90;99.90;;;;;;4995225;28;20581;-75
2023/07/29 03:49:38;;;;;;;1.60;0.70;;;20.90;99.90;;;;;;4993215;28;20191;-76
2023/07/29 03:52:05;;;;;;;1.50;0.67;;;20.90;99.90;;;;;;4994443;28;20613;-76
2023/07/29 03:54:31;;;;;;;1.60;0.80;;;20.90;99.90;;;;;;4978188;28;20625;-76
2023/07/29 03:56:57;;;;;;;2.20;0.77;;;20.80;99.90;;;;;;4994697;28;21115;-76
2023/07/29 03:59:23;;;;;;;2.50;0.70;;;20.80;99.90;;;;;;4994058;28;20175;-76
2023/07/29 04:01:49;;;;;;;1.80;0.70;;;20.80;99.90;;;;;;4993428;28;21156;-75
2023/07/29 04:04:15;;;;;;;1.57;0.70;;;20.80;99.90;;;;;;4993726;28;20618;-76
2023/07/29 04:06:41;;;;;;;2.07;0.70;;;20.80;99.90;;;;;;4994468;28;20590;-76
2023/07/29 04:09:07;;;;;;;1.40;0.63;;;20.80;99.90;;;;;;4993997;28;20626;-76
2023/07/29 04:11:34;;;;;;;1.97;0.70;;;20.80;99.90;;;;;;4993852;28;20507;-76
2023/07/29 04:13:59;;;;;;;1.83;0.70;;;20.80;99.90;;;;;;4994699;28;20598;-75
2023/07/29 04:16:26;;;;;;;1.40;0.80;;;20.80;99.90;;;;;;4978827;28;20195;-76
2023/07/29 04:18:51;;;;;;;2.53;0.80;;;20.70;99.90;;;;;;4994458;28;20179;-75
2023/07/29 04:21:17;;;;;;;2.10;0.87;;;20.70;99.90;;;;;;4994340;28;20609;-76
2023/07/29 04:23:43;;;;;;;1.77;0.87;;;20.70;99.90;;;;;;4994300;28;20200;-75
2023/07/29 04:26:08;;;;;;;1.90;1.03;;;20.70;99.90;;;;;;4994104;28;20187;-76
2023/07/29 04:28:34;;;;;;;1.30;0.70;;;20.70;99.90;;;;;;4993908;28;20243;-75
2023/07/29 04:31:00;;;;;;;1.40;0.90;;;20.70;99.90;;;;;;4994573;28;20270;-76
2023/07/29 04:33:27;;;;;;;2.50;0.70;;;20.70;99.90;;;;;;4993460;28;20181;-76
2023/07/29 04:35:52;;;;;;;1.47;0.87;;;20.70;99.90;;;;;;4993439;28;20669;-76
2023/07/29 04:38:18;;;;;;;2.90;1.00;;;20.60;99.90;;;;;;4992672;28;20175;-75
2023/07/29 04:40:44;;;;;;;2.73;0.90;;;20.60;99.90;;;;;;4992666;28;20573;-75
2023/07/29 04:43:10;;;;;;;1.80;0.90;;;20.70;99.90;;;;;;4992150;28;20203;-76
2023/07/29 04:45:35;;;;;;;2.40;1.00;;;20.70;99.90;;;;;;4992915;28;20218;-76
2023/07/29 04:48:01;;;;;;;1.90;1.17;;;20.70;99.90;;;;;;4993209;28;20593;-76
2023/07/29 04:50:27;;;;;;;1.50;1.10;;;20.70;99.90;;;;;;4993244;28;20210;-76
2023/07/29 04:52:53;;;;;;;2.87;0.93;;;20.70;99.90;;;;;;4993010;28;20202;-76
2023/07/29 04:55:18;;;;;;;2.20;1.00;;;20.70;99.90;;;;;;4992370;28;20191;-76
2023/07/29 04:57:44;;;;;;;2.07;1.07;;;20.70;99.90;;;;;;4976943;28;20958;-76
2023/07/29 05:00:10;;;;;;;3.60;1.07;;;20.70;99.90;;;;;;4993998;28;20262;-76
2023/07/29 05:02:36;;;;;;;4.90;1.57;;;20.70;99.90;;;;;;4995048;28;20532;-76
2023/07/29 05:05:02;;;;;;;2.10;1.17;;;20.70;99.90;;;;;;4995434;28;20598;-75
2023/07/29 05:07:28;;;;;;;3.90;1.10;;;20.80;99.90;;;;;;4994117;28;20250;-76
2023/07/29 05:09:54;;;;;;;1.80;1.23;;;20.80;99.90;;;;;;4994046;28;20646;-75
2023/07/29 05:12:19;;;;;;;2.83;1.20;;;20.80;99.90;;;;;;4995007;28;20181;-76
2023/07/29 05:14:45;;;;;;;2.53;1.20;;;20.80;99.90;;;;;;4994013;28;20567;-75
2023/07/29 05:17:11;;;;;;;2.57;1.00;;;20.80;99.90;;;;;;4993516;28;20179;-75
2023/07/29 05:19:36;;;;;;;2.30;1.30;;;20.80;99.90;;;;;;4992506;28;20195;-75
2023/07/29 05:22:02;;;;;;;3.13;1.70;;;20.80;99.90;;;;;;4992754;28;20643;-75
2023/07/29 05:24:28;;;;;;;1.70;1.10;;;20.80;99.90;;;;;;4994447;28;20663;-75
2023/07/29 05:26:54;;;;;;;1.63;1.07;;;20.90;99.90;;;;;;4992891;28;20888;-75
2023/07/29 05:29:19;;;;;;;2.23;1.30;;;20.90;99.90;;;;;;4993106;28;20818;-75
2023/07/29 05:31:45;;;;;;;3.80;1.50;;;20.90;99.90;;;;;;4977198;28;20201;-75
2023/07/29 05:34:11;;;;;;;2.13;1.10;;;21.00;99.90;;;;;;4977214;28;20697;-75
2023/07/29 05:36:37;;;;;;;3.10;1.30;;;21.00;99.90;;;;;;4993222;28;20187;-75
2023/07/29 05:39:03;;;;;;;1.93;1.10;;;21.00;99.90;;;;;;4993946;28;20179;-75
2023/07/29 05:41:29;;;;;;;1.70;1.00;;;21.10;99.90;;;;;;4995332;28;20182;-76
2023/07/29 05:43:55;;;;;;;2.10;1.20;;;21.10;99.90;;;;;;4993356;28;20638;-76
2023/07/29 05:46:20;;;;;;;2.43;1.43;;;21.10;99.90;;;;;;4993555;28;21208;-76
2023/07/29 05:48:46;;;;;;;2.20;1.40;;;21.10;99.90;;;;;;4993429;28;20206;-76
2023/07/29 05:51:12;;;;;;;4.20;1.33;;;21.10;99.90;;;;;;4994803;28;20195;-76
2023/07/29 05:53:38;;;;;;;1.97;1.40;;;21.10;99.90;;;;;;4993653;28;20202;-76
2023/07/29 05:56:04;;;;;;;4.83;1.83;;;21.10;99.90;;;;;;4992879;28;21219;-76
2023/07/29 05:58:31;;;;;;;2.10;1.20;;;21.10;99.90;;;;;;4993622;28;20194;-76
2023/07/29 06:00:57;;;;;;;2.40;1.30;;;21.20;99.90;;;;;;4994006;28;20653;-76
2023/07/29 06:03:23;;;;;;;1.90;1.20;;;21.20;99.90;;;;;;4994372;28;20593;-75
2023/07/29 06:05:50;;;;;;;4.00;1.10;;;21.30;99.90;;;;;;4994778;28;20590;-75
2023/07/29 06:08:16;;;;;;;2.40;1.20;;;21.30;99.90;;;;;;4995509;28;20656;-76
2023/07/29 06:10:42;;;;;;;1.90;1.10;;;21.40;99.90;;;;;;4996320;28;20212;-76
2023/07/29 06:13:08;;;;;;;2.43;1.37;;;21.50;99.90;;;;;;4995751;28;20174;-76
2023/07/29 06:15:33;;;;;;;3.10;1.20;;;21.50;99.90;;;;;;4995709;28;20210;-76
2023/07/29 06:17:59;;;;;;;1.90;1.00;;;21.50;99.90;;;;;;4996949;28;20578;-76
2023/07/29 06:20:25;;;;;;;4.97;1.20;;;21.60;99.90;;;;;;4997862;28;20242;-76
2023/07/29 06:22:51;;;;;;;3.57;0.97;;;21.60;99.90;;;;;;4995212;28;20183;-76
2023/07/29 06:25:16;;;;;;;3.50;1.00;;;21.60;99.90;;;;;;4995434;28;20195;-76
2023/07/29 06:27:42;;;;;;;2.30;1.10;;;21.60;99.90;;;;;;5032653;23;20224;-77
2023/07/29 06:30:08;;;;;;;2.13;1.00;;;21.60;99.90;;;;;;5027130;28;20204;-78
2023/07/29 06:32:34;;;;;;;1.40;0.83;;;21.60;99.90;;;;;;5030329;28;20216;-80
2023/07/29 06:35:00;;;;;;;1.63;0.80;;;21.60;99.90;;;;;;5015396;28;20560;-78
2023/07/29 06:37:26;;;;;;;2.40;0.90;;;21.60;99.90;;;;;;5008509;28;20205;-79
2023/07/29 06:39:52;;;;;;;1.60;0.70;;;21.60;99.90;;;;;;5013751;28;20969;-79
2023/07/29 06:42:18;;;;;;;3.13;0.90;;;21.60;99.90;;;;;;4996847;28;20213;-79
2023/07/29 06:44:45;;;;;;;2.80;0.80;;;21.60;99.90;;;;;;5014584;28;20177;-79
2023/07/29 06:47:11;;;;;;;2.03;0.80;;;21.60;99.90;;;;;;5013876;28;20202;-79
2023/07/29 06:49:37;;;;;;;1.73;0.90;;;21.60;99.90;;;;;;5013989;28;21026;-79
2023/07/29 06:52:03;;;;;;;3.33;0.70;;;21.60;99.90;;;;;;4996197;28;20667;-79
2023/07/29 06:54:29;;;;;;;3.23;1.00;;;21.60;99.90;;;;;;4996675;28;20432;-79
2023/07/29 06:57:01;;;;;;;2.20;0.87;;;21.60;99.90;;;;;;4996611;28;20609;-79
2023/07/29 06:59:30;;;;;;;4.13;0.90;;;21.60;99.90;;;;;;4998176;28;20184;-79
2023/07/29 07:02:00;;;;;;;3.03;0.80;;;21.70;99.90;;;;;;4981931;28;20604;-78
2023/07/29 07:04:26;;;;;;;1.73;0.73;;;21.90;99.90;;;;;;4998311;28;20664;-80
2023/07/29 07:06:52;;;;;;;2.10;1.10;;;22.00;99.90;;;;;;5014768;28;20704;-79
2023/07/29 07:09:19;;;;;;;2.17;0.90;;;22.20;99.90;;;;;;5013693;28;20201;-79
2023/07/29 07:12:01;;;;;;;1.87;0.97;;;22.30;99.90;;;;;;5013617;28;20194;-78
2023/07/29 07:14:27;;;;;;;2.37;0.77;;;22.50;99.90;;;;;;4996457;28;20627;-79
2023/07/29 07:16:53;;;;;;;1.60;0.80;;;22.80;99.90;;;;;;5014770;28;20214;-81
2023/07/29 07:19:19;;;;;;;2.60;1.47;;;23.20;99.90;;;;;;4996189;28;20715;-82
2023/07/29 07:21:44;;;;;;;1.60;0.80;;;23.50;99.90;;;;;;5013914;28;20721;-82
2023/07/29 07:24:10;;;;;;;1.50;0.90;;;23.80;99.90;;;;;;4997105;28;20202;-82
2023/07/29 07:26:35;;;;;;;2.37;0.90;;;24.10;99.90;;;;;;5015307;28;20888;-82
2023/07/29 07:29:01;;;;;;;1.60;0.87;;;24.30;99.90;;;;;;4980251;28;20293;-82
2023/07/29 07:31:27;;;;;;;1.83;1.00;;;24.40;99.90;;;;;;4999135;28;20174;-82
2023/07/29 07:33:53;;;;;;;1.67;0.90;;;24.40;99.90;;;;;;4980706;28;20182;-82
2023/07/29 07:36:18;;;;;;;1.43;0.77;;;24.40;99.90;;;;;;5014146;28;20167;-81
2023/07/29 07:38:44;;;;;;;4.13;0.80;;;24.40;99.90;;;;;;4995873;28;20199;-82
2023/07/29 07:41:10;;;;;;;4.20;0.93;;;24.50;99.90;;;;;;4995584;28;20190;-82
2023/07/29 07:43:35;;;;;;;1.67;0.80;;;24.50;99.90;;;;;;5013685;28;20218;-83
2023/07/29 07:46:52;;;;;;;2.03;0.90;;;24.50;99.90;;;;;;4999668;28;20178;-83
2023/07/29 07:50:20;;;;;;;2.50;0.77;;;24.50;99.90;;;;;;4888620;29;20308;-83
2023/07/29 07:52:45;;;;;;;2.07;1.10;;;24.60;99.90;;;;;;4978007;28;20581;-83
2023/07/29 07:55:11;;;;;;;1.83;0.87;;;24.50;99.90;;;;;;5013127;28;20569;-83
2023/07/29 07:57:37;;;;;;;3.73;0.83;;;24.50;99.90;;;;;;5013681;28;20640;-84
2023/07/29 08:00:04;;;;;;;2.50;1.30;;;24.50;99.90;;;;;;5013323;28;20754;-84
2023/07/29 08:02:38;;;;;;;2.17;1.00;;;24.50;99.90;;;;;;5013109;28;20209;-84
2023/07/29 08:05:57;;;;;;;2.57;1.00;;;24.60;99.90;;;;;;4997169;28;20647;-84
2023/07/29 08:08:23;;;;;;;2.33;0.90;;;24.70;99.90;;;;;;4960759;28;20214;-83
2023/07/29 08:10:49;;;;;;;2.13;1.23;;;25.10;99.90;;;;;;5019100;28;20608;-84
2023/07/29 08:13:14;;;;;;;3.87;1.00;;;25.50;99.90;;;;;;4980520;28;20233;-84
2023/07/29 08:15:41;;;;;;;2.00;1.13;;;25.90;99.90;;;;;;4995199;28;20522;-84
2023/07/29 08:18:07;;;;;;;1.90;0.80;;;26.40;99.90;;;;;;4995976;28;20196;-81
2023/07/29 08:20:32;;;;;;;2.43;1.00;;;27.00;99.90;;;;;;4978958;28;21016;-82
2023/07/29 08:22:58;;;;;;;1.80;0.70;;;27.70;99.90;;;;;;4978692;28;20695;-81
2023/07/29 08:25:24;;;;;;;2.30;0.80;;;28.40;99.90;;;;;;4994760;28;20764;-80
2023/07/29 08:27:50;;;;;;;2.43;0.80;;;28.80;99.90;;;;;;5014005;28;20697;-79
2023/07/29 08:30:16;;;;;;;1.73;0.87;;;29.10;99.90;;;;;;4997544;28;20201;-81
2023/07/29 08:32:42;;;;;;;1.43;0.70;;;29.30;99.90;;;;;;5014036;28;20171;-79
2023/07/29 08:35:07;;;;;;;1.70;0.90;;;29.60;99.90;;;;;;4995091;28;20584;-79
2023/07/29 08:37:33;;;;;;;1.47;0.60;;;29.70;99.90;;;;;;4994625;28;20635;-79
2023/07/29 08:39:59;;;;;;;2.40;0.60;;;29.90;99.90;;;;;;4994528;28;20232;-80
2023/07/29 08:42:31;;;;;;;2.50;0.80;;;29.90;99.90;;;;;;4978285;28;20665;-79
2023/07/29 08:44:58;;;;;;;1.70;0.63;;;29.90;99.90;;;;;;4978696;28;20581;-79
2023/07/29 08:47:24;;;;;;;1.77;0.70;;;29.70;99.90;;;;;;4978607;28;21008;-78
2023/07/29 08:49:51;;;;;;;1.70;0.60;;;29.40;99.90;;;;;;4994603;28;20616;-79
2023/07/29 08:52:18;;;;;;;1.40;0.70;;;29.10;99.90;;;;;;4994435;28;20179;-80
2023/07/29 08:54:44;;;;;;;2.70;0.60;;;28.80;99.90;;;;;;4978431;28;21156;-80
2023/07/29 08:57:10;;;;;;;2.13;0.63;;;28.50;99.90;;;;;;4977046;28;20648;-80
2023/07/29 08:59:37;;;;;;;2.33;0.83;;;28.20;99.90;;;;;;5012379;28;20235;-80
2023/07/29 09:02:03;;;;;;;1.50;0.60;;;28.00;99.90;;;;;;4993728;28;21129;-80
2023/07/29 09:04:32;;;;;;;2.33;0.63;;;27.90;99.90;;;;;;5011892;28;20603;-80
2023/07/29 09:06:59;;;;;;;1.77;0.77;;;27.70;99.90;;;;;;4993929;28;20248;-79
2023/07/29 09:09:28;;;;;;;1.90;0.70;;;27.60;99.90;;;;;;4993700;28;20715;-79
2023/07/29 09:11:54;;;;;;;1.50;0.70;;;27.50;99.90;;;;;;4993922;28;20621;-79
2023/07/29 09:14:20;;;;;;;2.00;0.50;;;27.30;99.90;;;;;;4993692;28;21237;-80
2023/07/29 09:16:46;;;;;;;1.40;0.60;;;27.20;99.90;;;;;;4993983;28;20175;-80
2023/07/29 09:19:21;;;;;;;1.60;0.60;;;27.00;99.90;;;;;;4977944;28;20637;-81
2023/07/29 09:21:47;;;;;;;1.53;0.70;;;26.80;99.90;;;;;;4993980;28;20595;-80
2023/07/29 09:24:16;;;;;;;4.17;0.70;;;26.60;99.90;;;;;;4993720;28;21006;-80
2023/07/29 09:26:49;;;;;;;1.77;0.60;;;26.40;99.90;;;;;;5013862;28;20565;-81
2023/07/29 09:29:15;;;;;;;2.80;2.10;;;26.20;99.90;;;;;;4995011;28;21062;-80
2023/07/29 09:31:40;;;;;;;3.00;0.60;;;26.10;99.90;;;;;;5010979;28;20620;-81
2023/07/29 09:34:06;;;;;;;1.40;0.70;;;26.00;99.90;;;;;;4994645;28;20178;-81
2023/07/29 09:36:33;;;;;;;2.97;0.60;;;25.90;99.90;;;;;;4981911;28;20646;-81
2023/07/29 09:39:03;;;;;;;1.67;0.80;;;25.80;99.90;;;;;;4963547;28;20198;-82
2023/07/29 09:41:32;;;;;;;2.07;0.70;;;25.70;99.90;;;;;;5013399;28;20661;-80
2023/07/29 09:44:01;;;;;;;1.90;0.80;;;25.70;99.90;;;;;;4995975;28;20570;-80
2023/07/29 09:46:33;;;;;;;2.13;0.90;;;25.60;99.90;;;;;;4995677;28;20574;-81
2023/07/29 09:49:01;;;;;;;1.70;0.80;;;25.50;99.90;;;;;;4995131;28;20578;-81
2023/07/29 09:51:27;;;;;;;1.97;0.70;;;25.50;99.90;;;;;;4993280;28;20713;-81
2023/07/29 09:53:52;;;;;;;1.57;0.97;;;25.50;99.90;;;;;;5010781;28;20673;-81
2023/07/29 09:56:27;;;;;;;2.20;0.70;;;25.60;99.90;;;;;;5010718;28;20178;-81
2023/07/29 09:58:55;;;;;;;2.13;0.70;;;25.70;99.90;;;;;;4992721;28;20202;-81
2023/07/29 10:01:21;;;;;;;2.07;0.70;;;25.80;99.90;;;;;;4992806;28;20591;-80
2023/07/29 10:03:49;;;;;;;1.50;0.70;;;26.00;99.90;;;;;;4993010;28;21238;-82
2023/07/29 10:06:15;;;;;;;1.40;0.60;;;26.00;99.90;;;;;;5010179;28;20597;-82
2023/07/29 10:08:42;;;;;;;1.30;0.60;;;26.10;99.90;;;;;;4992073;28;21192;-81
2023/07/29 10:11:11;;;;;;;2.83;0.70;;;26.30;99.90;;;;;;4992630;28;20593;-81
2023/07/29 10:13:38;;;;;;;2.37;0.60;;;26.40;99.90;;;;;;5011347;28;20574;-80
2023/07/29 10:16:04;;;;;;;1.67;0.67;;;26.50;99.90;;;;;;5011521;28;20585;-80
2023/07/29 10:18:32;;;;;;;1.40;0.80;;;26.60;99.90;;;;;;5010786;28;20617;-80
2023/07/29 10:21:00;;;;;;;2.03;0.70;;;26.70;99.90;;;;;;5011057;28;20577;-80
2023/07/29 10:23:28;;;;;;;1.40;0.70;;;26.70;99.90;;;;;;4993079;28;20570;-81
2023/07/29 10:26:03;;;;;;;1.60;0.60;;;26.70;99.90;;;;;;5010691;28;20581;-80
2023/07/29 10:28:30;;;;;;;1.40;0.60;;;26.70;99.90;;;;;;4992018;28;20639;-81
2023/07/29 10:30:58;;;;;;;2.40;0.80;;;26.70;99.90;;;;;;4992873;28;21208;-80
2023/07/29 10:33:23;;;;;;;2.70;0.60;;;26.70;99.90;;;;;;5009895;28;20581;-81
2023/07/29 10:35:49;;;;;;;2.70;1.03;;;26.60;99.90;;;;;;5010563;28;20580;-80
2023/07/29 10:38:16;;;;;;;1.70;0.77;;;26.50;99.90;;;;;;4975827;28;20190;-80
2023/07/29 10:40:47;;;;;;;1.73;0.63;;;26.40;99.90;;;;;;4976771;28;20668;-80
2023/07/29 10:44:13;;;;;;;1.70;0.70;;;26.30;99.90;;;;;;5014935;28;20586;-80
2023/07/29 10:46:39;;;;;;;1.60;0.70;;;26.10;99.90;;;;;;5009749;28;20621;-77
2023/07/29 10:49:04;;;;;;;1.50;0.73;;;25.90;99.90;;;;;;4992201;28;20616;-80
2023/07/29 10:51:35;;;;;;;2.27;0.70;;;25.80;99.90;;;;;;4992589;28;20250;-80
2023/07/29 10:54:02;;;;;;;1.43;0.60;;;25.60;99.90;;;;;;5010326;28;20676;-80
2023/07/29 10:56:33;;;;;;;1.50;0.70;;;25.50;99.90;;;;;;4976607;28;20668;-80
2023/07/29 10:59:22;;;;;;;1.40;0.70;;;25.40;99.90;;;;;;4992107;28;20849;-80
2023/07/29 11:01:54;;;;;;;1.50;0.70;;;25.40;99.90;;;;;;4992328;28;21125;-80
2023/07/29 11:04:20;;;;;;;1.77;0.60;;;25.30;99.90;;;;;;5010112;28;20582;-79
2023/07/29 11:07:03;;;;;;;1.80;0.80;;;25.30;99.90;;;;;;5010190;28;20570;-80
2023/07/29 11:09:48;;;;;;;2.90;0.60;;;25.30;99.90;;;;;;5009325;28;20643;-79
2023/07/29 11:12:51;;;;;;;1.40;0.80;;;25.30;99.90;;;;;;4992348;28;20592;-80
2023/07/29 11:15:28;;;;;;;1.93;0.70;;;25.40;99.90;;;;;;4992294;28;20597;-79
2023/07/29 11:17:57;;;;;;;1.83;1.00;;;25.50;99.90;;;;;;4992414;28;20616;-80
2023/07/29 11:20:28;;;;;;;2.20;0.70;;;25.70;99.90;;;;;;4992209;28;20629;-80
2023/07/29 11:22:56;;;;;;;1.60;0.70;;;25.80;99.90;;;;;;4979581;28;20585;-80
2023/07/29 11:25:23;;;;;;;1.50;0.70;;;25.80;99.90;;;;;;5013486;28;20668;-81
2023/07/29 11:27:51;;;;;;;1.37;0.70;;;25.90;99.90;;;;;;4979794;28;20708;-81
2023/07/29 11:30:17;;;;;;;1.50;0.70;;;26.30;99.90;;;;;;4995582;28;20615;-82
2023/07/29 11:32:47;;;;;;;1.70;0.77;;;26.80;99.90;;;;;;4996449;28;21107;-81
2023/07/29 11:35:18;;;;;;;2.03;0.67;;;27.30;99.90;;;;;;5013391;28;20328;-82
2023/07/29 11:37:46;;;;;;;1.60;0.83;;;27.90;99.90;;;;;;4996029;28;20930;-82
2023/07/29 11:40:16;;;;;;;2.43;0.70;;;28.50;99.90;;;;;;4997335;28;20745;-80
2023/07/29 11:42:43;;;;;;;1.50;0.80;;;29.10;99.90;;;;;;4995567;28;20927;-80
2023/07/29 11:45:09;;;;;;;1.70;0.67;;;29.70;99.90;;;;;;5013177;28;20651;-79
2023/07/29 11:47:36;;;;;;;1.40;0.73;;;30.30;99.90;;;;;;5013291;28;20600;-80
2023/07/29 11:50:16;;;;;;;2.10;0.83;;;30.70;99.90;;;;;;5011746;28;20577;-80
2023/07/29 11:52:43;;;;;;;2.27;1.07;;;31.20;99.90;;;;;;4995384;28;20596;-80
2023/07/29 11:55:09;;;;;;;1.50;0.70;;;31.50;99.90;;;;;;4995695;28;20588;-81
2023/07/29 11:57:37;;;;;;;1.63;0.80;;;31.90;99.90;;;;;;4995462;28;20635;-81
2023/07/29 12:00:09;;;;;;;1.70;0.70;;;32.30;99.90;;;;;;5012711;28;20747;-80
2023/07/29 12:02:40;;;;;;;1.50;0.60;;;32.50;99.90;;;;;;5012773;28;20587;-81
2023/07/29 12:05:08;;;;;;;1.70;0.70;;;32.70;99.90;;;;;;5013208;28;20719;-80
2023/07/29 12:07:34;;;;;;;1.40;0.70;;;32.90;99.90;;;;;;5012820;28;20656;-80
2023/07/29 12:10:01;;;;;;;1.50;0.80;;;33.00;99.90;;;;;;5012452;28;20671;-80
2023/07/29 12:12:27;;;;;;;1.30;0.60;;;33.20;99.90;;;;;;4994931;28;21299;-80
2023/07/29 12:14:54;;;;;;;1.60;0.70;;;33.40;99.90;;;;;;4995357;28;20667;-80
2023/07/29 12:17:20;;;;;;;1.40;0.70;;;33.60;99.90;;;;;;5012503;28;20197;-80
2023/07/29 12:19:46;;;;;;;1.90;0.73;;;33.70;99.90;;;;;;4994558;28;20636;-79
2023/07/29 12:22:11;;;;;;;1.50;0.60;;;33.80;99.90;;;;;;4994313;28;20193;-80
2023/07/29 12:24:39;;;;;;;2.97;1.03;;;33.80;99.90;;;;;;5011499;28;20178;-80
2023/07/29 12:27:09;;;;;;;2.70;1.20;;;33.80;99.90;;;;;;4994889;28;20293;-79
2023/07/29 12:29:40;;;;;;;1.90;0.80;;;33.80;99.90;;;;;;4978265;28;20966;-80
2023/07/29 12:32:06;;;;;;;1.73;0.83;;;33.80;99.90;;;;;;4994565;28;20587;-80
2023/07/29 12:34:32;;;;;;;1.60;0.60;;;33.80;99.90;;;;;;5012150;28;20597;-80
2023/07/29 12:36:59;;;;;;;1.50;0.77;;;33.80;99.90;;;;;;5012405;28;20623;-80
2023/07/29 12:39:29;;;;;;;1.40;0.70;;;33.70;99.90;;;;;;4977873;28;20260;-79
2023/07/29 12:42:00;;;;;;;2.80;0.80;;;33.70;99.90;;;;;;4994712;28;20683;-79
2023/07/29 12:44:32;;;;;;;2.27;0.60;;;33.60;99.90;;;;;;5012028;28;20585;-81
2023/07/29 12:46:58;;;;;;;4.13;1.17;;;33.50;99.90;;;;;;5016778;28;20613;-81
2023/07/29 12:49:28;;;;;;;1.60;0.93;;;33.30;99.90;;;;;;4993951;28;20577;-81
2023/07/29 12:51:54;;;;;;;2.00;1.20;;;33.00;98.10;;;;;;5011790;28;20177;-78
2023/07/29 12:54:19;;;;;;;3.33;1.60;;;32.70;97.30;;;;;;5011799;28;20582;-78